createdAt,value
2019-02-22T00:00:22.582Z,74.33
2019-02-22T00:02:48.913Z,71.90
2019-02-22T00:05:15.267Z,71.00
2019-02-22T00:07:41.669Z,75.70
2019-02-22T00:10:08.271Z,73.50
2019-02-22T00:12:34.823Z,74.60
2019-02-22T00:15:01.498Z,72.97
2019-02-22T00:17:27.933Z,74.03
2019-02-22T00:19:54.539Z,74.53
2019-02-22T00:22:20.948Z,71.83
2019-02-22T00:24:47.247Z,77.03
2019-02-22T00:27:13.656Z,74.30
2019-02-22T00:29:39.943Z,73.40
2019-02-22T00:32:06.536Z,70.13
2019-02-22T00:34:32.899Z,75.23
2019-02-22T00:36:59.335Z,76.40
2019-02-22T00:39:25.705Z,72.67
2019-02-22T00:41:52.099Z,79.93
2019-02-22T00:44:18.378Z,78.73
2019-02-22T00:46:44.783Z,80.67
2019-02-22T00:49:11.172Z,84.70
2019-02-22T00:51:37.493Z,84.37
2019-02-22T00:54:03.996Z,81.57
2019-02-22T00:56:30.413Z,82.03
2019-02-22T00:58:56.901Z,80.63
2019-02-22T01:01:23.427Z,83.63
2019-02-22T01:03:49.756Z,77.40
2019-02-22T01:06:16.119Z,78.93
2019-02-22T01:08:42.834Z,74.67
2019-02-22T01:11:09.197Z,74.80
2019-02-22T01:13:35.511Z,74.73
2019-02-22T01:16:01.898Z,67.70
2019-02-22T01:18:28.322Z,70.53
2019-02-22T01:20:54.892Z,68.80
2019-02-22T01:23:21.388Z,71.30
2019-02-22T01:25:47.778Z,65.80
2019-02-22T01:28:14.103Z,67.57
2019-02-22T01:30:40.494Z,67.07
2019-02-22T01:33:06.814Z,71.97
2019-02-22T01:35:33.232Z,67.43
2019-02-22T01:37:59.548Z,69.13
2019-02-22T01:40:25.860Z,66.90
2019-02-22T01:42:52.343Z,69.87
2019-02-22T01:45:18.962Z,68.20
2019-02-22T01:47:45.367Z,72.10
2019-02-22T01:50:17.361Z,68.27
2019-02-22T01:52:43.853Z,76.57
2019-02-22T01:55:10.365Z,74.40
2019-02-22T01:57:36.747Z,69.27
2019-02-22T02:00:06.257Z,70.80
2019-02-22T02:02:32.754Z,73.10
2019-02-22T02:04:59.308Z,75.87
2019-02-22T02:07:25.799Z,71.17
2019-02-22T02:09:52.306Z,74.53
2019-02-22T02:12:18.673Z,69.87
2019-02-22T02:14:45.248Z,69.60
2019-02-22T02:17:11.771Z,70.00
2019-02-22T02:19:38.133Z,66.40
2019-02-22T02:22:04.815Z,66.53
2019-02-22T02:24:31.285Z,64.60
2019-02-22T02:26:57.798Z,68.70
2019-02-22T02:29:24.276Z,71.37
2019-02-22T02:31:50.608Z,66.77
2019-02-22T02:34:16.981Z,70.10
2019-02-22T02:36:43.556Z,69.17
2019-02-22T02:39:10.040Z,69.43
2019-02-22T02:41:36.463Z,70.23
2019-02-22T02:44:02.962Z,75.40
2019-02-22T02:46:29.485Z,71.17
2019-02-22T02:48:55.773Z,69.20
2019-02-22T02:51:22.096Z,68.93
2019-02-22T02:53:48.389Z,70.00
2019-02-22T02:56:14.687Z,68.17
2019-02-22T02:58:40.975Z,65.07
2019-02-22T03:01:07.477Z,64.60
2019-02-22T03:03:34.167Z,67.87
2019-02-22T03:06:02.578Z,67.57
2019-02-22T03:08:30.783Z,68.90
2019-02-22T03:10:57.313Z,65.30
2019-02-22T03:13:23.713Z,71.43
2019-02-22T03:15:50.094Z,69.17
2019-02-22T03:18:16.459Z,70.30
2019-02-22T03:20:42.765Z,67.60
2019-02-22T03:23:09.223Z,72.53
2019-02-22T03:25:35.645Z,72.20
2019-02-22T03:28:02.128Z,73.07
2019-02-22T03:30:28.733Z,67.93
2019-02-22T03:32:55.130Z,66.60
2019-02-22T03:35:21.739Z,66.20
2019-02-22T03:37:48.309Z,66.33
2019-02-22T03:40:14.757Z,63.47
2019-02-22T03:42:41.256Z,64.40
2019-02-22T03:45:08.139Z,66.77
2019-02-22T03:47:35.456Z,63.33
2019-02-22T03:50:03.427Z,63.03
2019-02-22T03:52:34.458Z,63.93
2019-02-22T03:55:01.052Z,63.40
2019-02-22T03:57:27.522Z,59.73
2019-02-22T03:59:54.126Z,60.80
2019-02-22T04:02:20.523Z,61.63
2019-02-22T04:04:47.050Z,70.17
2019-02-22T04:07:13.308Z,93.57
2019-02-22T04:09:39.700Z,74.07
2019-02-22T04:12:06.078Z,64.30
2019-02-22T04:14:32.425Z,66.17
2019-02-22T04:16:58.902Z,64.90
2019-02-22T04:19:25.303Z,69.07
2019-02-22T04:21:51.659Z,68.53
2019-02-22T04:24:18.134Z,63.27
2019-02-22T04:26:44.586Z,66.73
2019-02-22T04:29:10.954Z,63.90
2019-02-22T04:31:37.322Z,61.30
2019-02-22T04:34:03.954Z,60.27
2019-02-22T04:36:30.422Z,57.90
2019-02-22T04:38:57.002Z,58.70
2019-02-22T04:41:23.337Z,57.03
2019-02-22T04:43:49.841Z,54.97
2019-02-22T04:46:18.299Z,55.50
2019-02-22T04:48:44.678Z,53.60
2019-02-22T04:51:11.070Z,52.70
2019-02-22T04:53:40.327Z,52.80
2019-02-22T04:56:06.863Z,56.53
2019-02-22T04:58:33.249Z,51.20
2019-02-22T05:00:59.697Z,51.37
2019-02-22T05:03:26.182Z,50.37
2019-02-22T05:05:52.616Z,53.63
2019-02-22T05:08:18.939Z,48.37
2019-02-22T05:10:45.362Z,52.10
2019-02-22T05:13:11.900Z,51.83
2019-02-22T05:15:38.276Z,54.83
2019-02-22T05:18:04.766Z,50.63
2019-02-22T05:20:31.188Z,50.53
2019-02-22T05:23:03.922Z,50.80
2019-02-22T05:25:26.032Z,52.33
2019-02-22T05:27:52.587Z,49.00
2019-02-22T05:30:18.869Z,53.13
2019-02-22T05:32:45.507Z,49.23
2019-02-22T05:35:11.803Z,49.87
2019-02-22T05:37:38.198Z,50.13
2019-02-22T05:40:05.287Z,49.43
2019-02-22T05:42:31.829Z,53.20
2019-02-22T05:44:58.233Z,48.90
2019-02-22T05:47:24.629Z,51.30
2019-02-22T05:49:51.130Z,51.47
2019-02-22T05:52:17.727Z,50.53
2019-02-22T05:54:44.048Z,56.60
2019-02-22T05:57:10.557Z,52.20
2019-02-22T05:59:36.843Z,51.07
2019-02-22T06:02:03.344Z,47.70
2019-02-22T06:04:29.859Z,53.47
2019-02-22T06:06:56.455Z,46.87
2019-02-22T06:09:22.904Z,48.70
2019-02-22T06:11:49.318Z,50.20
2019-02-22T06:14:15.643Z,46.13
2019-02-22T06:16:44.764Z,48.70
2019-02-22T06:19:11.303Z,44.67
2019-02-22T06:21:37.719Z,45.13
2019-02-22T06:24:04.104Z,45.03
2019-02-22T06:26:30.606Z,52.27
2019-02-22T06:28:57.207Z,46.53
2019-02-22T06:31:23.745Z,46.43
2019-02-22T06:33:50.264Z,48.40
2019-02-22T06:36:16.733Z,49.47
2019-02-22T06:38:43.294Z,49.93
2019-02-22T06:41:09.590Z,45.27
2019-02-22T06:43:36.003Z,49.57
2019-02-22T06:46:02.480Z,48.03
2019-02-22T06:48:28.777Z,49.07
2019-02-22T06:50:55.183Z,46.17
2019-02-22T06:53:21.680Z,46.40
2019-02-22T06:55:48.217Z,47.87
2019-02-22T06:58:14.644Z,45.90
2019-02-22T07:00:41.193Z,46.60
2019-02-22T07:03:07.818Z,49.50
2019-02-22T07:05:34.236Z,49.30
2019-02-22T07:08:00.727Z,50.50
2019-02-22T07:10:28.080Z,49.90
2019-02-22T07:12:57.022Z,47.07
2019-02-22T07:15:23.819Z,48.00
2019-02-22T07:17:50.220Z,48.00
2019-02-22T07:20:16.874Z,49.33
2019-02-22T07:22:43.389Z,55.87
2019-02-22T07:25:11.131Z,47.60
2019-02-22T07:27:37.604Z,45.00
2019-02-22T07:30:09.864Z,48.27
2019-02-22T07:32:36.218Z,46.13
2019-02-22T07:35:03.644Z,42.87
2019-02-22T07:37:30.073Z,42.63
2019-02-22T07:39:56.649Z,44.43
2019-02-22T07:42:23.143Z,45.93
2019-02-22T07:44:49.440Z,42.90
2019-02-22T07:47:15.883Z,48.13
2019-02-22T07:49:42.379Z,46.47
2019-02-22T07:52:08.929Z,42.20
2019-02-22T07:54:35.315Z,46.63
2019-02-22T07:57:01.953Z,43.47
2019-02-22T07:59:28.373Z,43.10
2019-02-22T08:01:54.820Z,45.53
2019-02-22T08:04:21.432Z,41.43
2019-02-22T08:06:47.965Z,41.80
2019-02-22T08:09:14.354Z,41.60
2019-02-22T08:11:40.778Z,39.97
2019-02-22T08:14:07.998Z,41.63
2019-02-22T08:16:34.730Z,38.50
2019-02-22T08:19:02.043Z,41.50
2019-02-22T08:21:28.584Z,37.87
2019-02-22T08:23:55.076Z,39.27
2019-02-22T08:26:21.635Z,38.67
2019-02-22T08:28:48.180Z,40.53
2019-02-22T08:31:14.662Z,40.33
2019-02-22T08:33:41.209Z,36.30
2019-02-22T08:36:07.592Z,33.93
2019-02-22T08:38:34.222Z,35.03
2019-02-22T08:41:00.674Z,33.97
2019-02-22T08:43:31.505Z,35.13
2019-02-22T08:45:55.512Z,33.83
2019-02-22T08:48:21.887Z,34.70
2019-02-22T08:50:48.283Z,35.73
2019-02-22T08:53:14.877Z,34.87
2019-02-22T08:55:41.280Z,33.53
2019-02-22T08:58:07.873Z,33.53
2019-02-22T09:00:34.713Z,31.53
2019-02-22T09:03:01.396Z,30.93
2019-02-22T09:05:27.689Z,31.03
2019-02-22T09:07:54.088Z,29.83
2019-02-22T09:10:20.532Z,30.87
2019-02-22T09:12:47.143Z,31.47
2019-02-22T09:15:13.654Z,33.20
2019-02-22T09:17:40.137Z,32.03
2019-02-22T09:20:10.083Z,29.73
2019-02-22T09:22:36.393Z,27.97
2019-02-22T09:25:03.849Z,27.77
2019-02-22T09:27:30.235Z,28.90
2019-02-22T09:29:59.103Z,30.77
2019-02-22T09:32:25.029Z,26.60
2019-02-22T09:34:51.457Z,28.03
2019-02-22T09:37:17.970Z,31.07
2019-02-22T09:39:44.289Z,27.10
2019-02-22T09:42:10.829Z,30.17
2019-02-22T09:44:37.339Z,29.23
2019-02-22T09:47:03.945Z,27.50
2019-02-22T09:49:30.460Z,26.00
2019-02-22T09:51:56.825Z,26.17
2019-02-22T09:54:23.299Z,26.37
2019-02-22T09:56:51.044Z,27.90
2019-02-22T09:59:17.800Z,26.53
2019-02-22T10:01:44.221Z,26.27
2019-02-22T10:04:10.730Z,24.70
2019-02-22T10:06:37.030Z,25.03
2019-02-22T10:09:04.259Z,27.87
2019-02-22T10:11:30.761Z,27.10
2019-02-22T10:14:06.296Z,26.60
2019-02-22T10:16:27.530Z,23.90
2019-02-22T10:18:53.789Z,25.50
2019-02-22T10:21:20.443Z,23.67
2019-02-22T10:23:47.022Z,24.53
2019-02-22T10:26:13.525Z,24.00
2019-02-22T10:28:40.092Z,21.77
2019-02-22T10:31:06.680Z,23.90
2019-02-22T10:33:36.653Z,25.37
2019-02-22T10:36:01.652Z,24.60
2019-02-22T10:38:28.959Z,22.53
2019-02-22T10:40:55.453Z,23.17
2019-02-22T10:43:21.803Z,22.97
2019-02-22T10:45:48.196Z,23.10
2019-02-22T10:48:14.713Z,22.67
2019-02-22T10:50:41.320Z,21.50
2019-02-22T10:53:08.000Z,21.90
2019-02-22T10:55:34.477Z,22.23
2019-02-22T10:58:01.040Z,19.30
2019-02-22T11:00:27.698Z,19.37
2019-02-22T11:02:54.234Z,14.87
2019-02-22T11:05:20.860Z,14.17
2019-02-22T11:07:47.383Z,14.03
2019-02-22T11:10:14.033Z,16.70
2019-02-22T11:12:40.660Z,16.77
2019-02-22T11:15:09.753Z,19.47
2019-02-22T11:17:36.319Z,21.60
2019-02-22T11:20:06.526Z,18.83
2019-02-22T11:22:33.049Z,21.63
2019-02-22T11:24:59.680Z,18.97
2019-02-22T11:27:26.174Z,15.67
2019-02-22T11:29:52.465Z,16.50
2019-02-22T11:32:18.980Z,19.77
2019-02-22T11:34:45.480Z,20.10
2019-02-22T11:37:12.090Z,18.07
2019-02-22T11:39:38.643Z,17.20
2019-02-22T11:42:04.965Z,17.60
2019-02-22T11:44:39.795Z,16.97
2019-02-22T11:46:59.785Z,17.63
2019-02-22T11:49:26.184Z,18.77
2019-02-22T11:51:52.693Z,19.37
2019-02-22T11:54:19.148Z,19.77
2019-02-22T11:56:46.314Z,20.20
2019-02-22T11:59:12.874Z,19.90
2019-02-22T12:01:39.429Z,16.93
2019-02-22T12:04:05.971Z,14.27
2019-02-22T12:06:32.603Z,14.23
2019-02-22T12:08:58.985Z,16.37
2019-02-22T12:11:25.473Z,15.33
2019-02-22T12:13:52.119Z,13.83
2019-02-22T12:16:18.716Z,40.57
2019-02-22T12:18:45.151Z,22.40
2019-02-22T12:21:11.714Z,13.97
2019-02-22T12:23:38.222Z,15.43
2019-02-22T12:26:04.759Z,13.57
2019-02-22T12:28:31.371Z,15.40
2019-02-22T12:30:57.810Z,13.83
2019-02-22T12:33:24.327Z,12.73
2019-02-22T12:35:50.990Z,14.83
2019-02-22T12:38:17.517Z,16.60
2019-02-22T12:40:44.230Z,18.63
2019-02-22T12:43:10.722Z,17.23
2019-02-22T12:45:37.334Z,17.97
2019-02-22T12:48:04.029Z,25.83
2019-02-22T12:50:30.735Z,18.90
2019-02-22T12:52:57.108Z,20.90
2019-02-22T12:55:23.552Z,19.27
2019-02-22T12:57:50.319Z,21.03
2019-02-22T13:00:18.168Z,26.47
2019-02-22T13:02:44.628Z,33.13
2019-02-22T13:05:15.447Z,22.77
2019-02-22T13:07:42.179Z,21.50
2019-02-22T13:10:08.878Z,23.47
2019-02-22T13:12:35.290Z,23.13
2019-02-22T13:15:02.116Z,25.43
2019-02-22T13:17:31.080Z,22.77
2019-02-22T13:19:56.934Z,23.67
2019-02-22T13:22:23.578Z,19.80
2019-02-22T13:24:50.102Z,21.33
2019-02-22T13:27:16.743Z,19.30
2019-02-22T13:29:43.338Z,22.47
2019-02-22T13:32:09.969Z,22.00
2019-02-22T13:34:36.686Z,23.30
2019-02-22T13:37:03.600Z,24.47
2019-02-22T13:39:30.237Z,22.17
2019-02-22T13:41:56.746Z,20.50
2019-02-22T13:44:23.341Z,23.83
2019-02-22T13:46:49.973Z,31.17
2019-02-22T13:49:16.649Z,26.97
2019-02-22T13:51:43.289Z,19.00
2019-02-22T13:54:09.951Z,25.63
2019-02-22T13:56:36.584Z,25.90
2019-02-22T13:59:03.291Z,19.03
2019-02-22T14:01:30.063Z,22.23
2019-02-22T14:03:56.858Z,23.30
2019-02-22T14:06:23.160Z,22.17
2019-02-22T14:08:49.615Z,25.40
2019-02-22T14:11:16.069Z,24.57
2019-02-22T14:13:42.665Z,25.50
2019-02-22T14:16:09.290Z,26.47
2019-02-22T14:18:35.739Z,23.37
2019-02-22T14:21:02.409Z,22.57
2019-02-22T14:23:29.004Z,21.97
2019-02-22T14:25:55.434Z,22.07
2019-02-22T14:28:22.081Z,22.10
2019-02-22T14:30:48.606Z,21.10
2019-02-22T14:33:15.334Z,25.30
2019-02-22T14:35:41.937Z,19.20
2019-02-22T14:38:08.513Z,26.03
2019-02-22T14:40:34.964Z,23.27
2019-02-22T14:43:01.413Z,20.67
2019-02-22T14:45:28.140Z,24.70
2019-02-22T14:47:54.804Z,23.00
2019-02-22T14:50:23.263Z,29.07
2019-02-22T14:52:49.981Z,30.67
2019-02-22T14:55:16.532Z,20.73
2019-02-22T14:57:45.166Z,21.37
2019-02-22T15:00:20.793Z,21.87
2019-02-22T15:02:47.418Z,22.27
2019-02-22T15:05:14.379Z,24.00
2019-02-22T15:07:41.050Z,25.17
2019-02-22T15:10:08.727Z,25.60
2019-02-22T15:12:35.565Z,21.73
2019-02-22T15:15:04.665Z,22.63
2019-02-22T15:17:33.155Z,21.93
2019-02-22T15:19:59.916Z,20.20
2019-02-22T15:22:26.527Z,23.17
2019-02-22T15:24:53.823Z,22.40
2019-02-22T15:27:20.482Z,20.83
2019-02-22T15:29:47.487Z,19.43
2019-02-22T15:32:13.956Z,22.63
2019-02-22T15:34:40.754Z,22.77
2019-02-22T15:37:07.425Z,27.60
2019-02-22T15:39:33.905Z,22.70
2019-02-22T15:42:00.385Z,24.03
2019-02-22T15:44:26.948Z,24.50
2019-02-22T15:46:53.511Z,27.77
2019-02-22T15:49:20.065Z,26.83
2019-02-22T15:51:46.655Z,24.70
2019-02-22T15:54:13.104Z,25.90
2019-02-22T15:56:39.826Z,24.50
2019-02-22T15:59:06.276Z,27.63
2019-02-22T16:01:33.049Z,26.90
2019-02-22T16:04:01.258Z,26.63
2019-02-22T16:06:27.921Z,27.40
2019-02-22T16:08:54.324Z,26.97
2019-02-22T16:11:21.115Z,32.53
2019-02-22T16:13:47.701Z,33.20
2019-02-22T16:16:22.987Z,31.67
2019-02-22T16:18:42.974Z,27.30
2019-02-22T16:21:09.543Z,29.43
2019-02-22T16:23:36.097Z,29.10
2019-02-22T16:26:02.725Z,28.93
2019-02-22T16:28:29.346Z,28.67
2019-02-22T16:30:56.121Z,32.17
2019-02-22T16:33:22.775Z,30.40
2019-02-22T16:35:49.447Z,32.23
2019-02-22T16:38:16.095Z,29.43
2019-02-22T16:40:42.752Z,30.83
2019-02-22T16:43:09.445Z,33.33
2019-02-22T16:45:36.003Z,35.37
2019-02-22T16:48:02.630Z,44.90
2019-02-22T16:50:29.244Z,72.93
2019-02-22T16:52:55.639Z,59.10
2019-02-22T16:55:22.365Z,47.33
2019-02-22T16:57:48.915Z,37.27
2019-02-22T17:00:15.800Z,38.43
2019-02-22T17:02:42.545Z,47.73
2019-02-22T17:05:12.509Z,39.70
2019-02-22T17:07:39.250Z,43.33
2019-02-22T17:10:09.251Z,39.57
2019-02-22T17:12:35.899Z,39.97
2019-02-22T17:15:03.206Z,37.33
2019-02-22T17:17:29.841Z,41.10
2019-02-22T17:19:56.385Z,39.60
2019-02-22T17:22:22.895Z,41.13
2019-02-22T17:24:49.507Z,37.63
2019-02-22T17:27:15.957Z,42.03
2019-02-22T17:29:42.716Z,39.07
2019-02-22T17:32:09.409Z,42.60
2019-02-22T17:34:35.995Z,38.40
2019-02-22T17:37:02.657Z,38.87
2019-02-22T17:39:29.321Z,37.70
2019-02-22T17:41:55.872Z,35.10
2019-02-22T17:44:22.595Z,40.30
2019-02-22T17:46:57.406Z,37.80
2019-02-22T17:49:17.804Z,40.57
2019-02-22T17:51:44.595Z,35.50
2019-02-22T17:54:11.387Z,40.00
2019-02-22T17:56:38.135Z,38.77
2019-02-22T17:59:04.851Z,39.23
2019-02-22T18:01:31.562Z,41.70
2019-02-22T18:03:58.270Z,46.23
2019-02-22T18:06:24.762Z,38.63
2019-02-22T18:08:51.446Z,37.73
2019-02-22T18:11:18.147Z,38.13
2019-02-22T18:13:44.730Z,35.10
2019-02-22T18:16:11.465Z,53.60
2019-02-22T18:18:38.540Z,40.33
2019-02-22T18:21:05.154Z,42.43
2019-02-22T18:23:31.925Z,42.87
2019-02-22T18:25:58.612Z,37.07
2019-02-22T18:28:25.154Z,37.10
2019-02-22T18:30:51.840Z,34.50
2019-02-22T18:33:18.455Z,37.73
2019-02-22T18:35:45.186Z,36.33
2019-02-22T18:38:11.770Z,37.40
2019-02-22T18:40:38.497Z,42.47
2019-02-22T18:43:05.251Z,37.90
2019-02-22T18:45:31.816Z,35.53
2019-02-22T18:47:58.444Z,38.30
2019-02-22T18:50:25.078Z,35.40
2019-02-22T18:52:51.510Z,37.73
2019-02-22T18:55:18.070Z,38.97
2019-02-22T18:57:44.610Z,42.77
2019-02-22T19:00:19.212Z,41.93
2019-02-22T19:02:45.855Z,40.47
2019-02-22T19:05:12.476Z,37.70
2019-02-22T19:07:39.202Z,35.60
2019-02-22T19:10:13.551Z,39.03
2019-02-22T19:12:40.510Z,36.47
2019-02-22T19:15:10.376Z,35.37
2019-02-22T19:17:36.998Z,34.60
2019-02-22T19:20:08.515Z,33.53
2019-02-22T19:22:35.291Z,33.77
2019-02-22T19:25:01.936Z,33.07
2019-02-22T19:27:28.617Z,28.67
2019-02-22T19:29:55.238Z,31.67
2019-02-22T19:32:21.842Z,32.23
2019-02-22T19:34:48.469Z,31.20
2019-02-22T19:37:15.357Z,31.53
2019-02-22T19:39:42.055Z,33.70
2019-02-22T19:42:09.043Z,29.77
2019-02-22T19:44:35.863Z,32.80
2019-02-22T19:47:02.734Z,28.70
2019-02-22T19:49:29.632Z,35.27
2019-02-22T19:51:56.457Z,41.17
2019-02-22T19:54:23.287Z,33.70
2019-02-22T19:56:52.090Z,29.20
2019-02-22T19:59:18.996Z,27.90
2019-02-22T20:01:45.951Z,27.43
2019-02-22T20:04:12.800Z,29.17
2019-02-22T20:06:39.610Z,22.20
2019-02-22T20:09:06.534Z,25.93
2019-02-22T20:11:33.390Z,21.27
2019-02-22T20:14:00.829Z,21.73
2019-02-22T20:16:27.688Z,22.87
2019-02-22T20:18:55.362Z,26.43
2019-02-22T20:21:22.145Z,22.67
2019-02-22T20:23:49.090Z,22.60
2019-02-22T20:26:15.964Z,24.73
2019-02-22T20:28:42.951Z,26.23
2019-02-22T20:31:19.775Z,23.17
2019-02-22T20:33:38.720Z,24.67
2019-02-22T20:36:05.491Z,28.27
2019-02-22T20:38:32.551Z,21.80
2019-02-22T20:40:59.461Z,21.20
2019-02-22T20:43:26.599Z,23.77
2019-02-22T20:45:53.358Z,24.97
2019-02-22T20:48:20.175Z,22.67
2019-02-22T20:50:47.190Z,21.27
2019-02-22T20:53:14.100Z,20.67
2019-02-22T20:55:41.101Z,21.47
2019-02-22T20:58:08.151Z,19.90
2019-02-22T21:00:35.155Z,22.47
2019-02-22T21:03:01.950Z,22.17
2019-02-22T21:05:28.957Z,23.00
2019-02-22T21:07:55.794Z,20.53
2019-02-22T21:10:22.710Z,21.93
2019-02-22T21:12:49.608Z,20.60
2019-02-22T21:15:16.679Z,20.60
2019-02-22T21:17:43.609Z,20.20
2019-02-22T21:20:14.391Z,21.63
2019-02-22T21:22:41.024Z,21.27
2019-02-22T21:25:09.696Z,20.30
2019-02-22T21:27:36.435Z,22.30
2019-02-22T21:30:09.587Z,23.60
2019-02-22T21:32:36.324Z,22.27
2019-02-22T21:35:03.819Z,24.00
2019-02-22T21:37:30.816Z,23.07
2019-02-22T21:39:57.634Z,25.27
2019-02-22T21:42:24.386Z,24.57
2019-02-22T21:44:51.040Z,24.17
2019-02-22T21:47:17.841Z,27.03
2019-02-22T21:49:44.651Z,28.93
2019-02-22T21:52:11.157Z,25.13
2019-02-22T21:54:37.832Z,26.00
2019-02-22T21:57:04.545Z,25.07
2019-02-22T21:59:31.218Z,25.80
2019-02-22T22:01:57.925Z,25.93
2019-02-22T22:04:24.606Z,23.63
2019-02-22T22:06:51.361Z,30.70
2019-02-22T22:09:17.893Z,26.00
2019-02-22T22:11:44.710Z,25.17
2019-02-22T22:14:11.467Z,27.87
2019-02-22T22:16:38.062Z,26.97
2019-02-22T22:19:04.764Z,29.20
2019-02-22T22:21:31.422Z,27.87
2019-02-22T22:23:58.112Z,26.97
2019-02-22T22:26:24.852Z,28.63
2019-02-22T22:28:51.654Z,29.93
2019-02-22T22:31:18.306Z,25.57
2019-02-22T22:33:44.897Z,29.47
2019-02-22T22:36:11.547Z,31.27
2019-02-22T22:38:38.119Z,31.37
2019-02-22T22:41:04.727Z,28.33
2019-02-22T22:43:31.323Z,28.67
2019-02-22T22:45:58.021Z,27.80
2019-02-22T22:48:24.580Z,27.70
2019-02-22T22:50:51.092Z,30.13
2019-02-22T22:53:17.507Z,29.13
2019-02-22T22:55:44.170Z,27.63
2019-02-22T22:58:10.691Z,28.70
2019-02-22T23:00:50.416Z,27.93
2019-02-22T23:03:17.772Z,29.43
2019-02-22T23:05:44.542Z,29.03
2019-02-22T23:08:11.191Z,29.63
2019-02-22T23:10:37.809Z,33.27
2019-02-22T23:13:04.487Z,30.33
2019-02-22T23:15:31.235Z,31.63
2019-02-22T23:17:57.899Z,32.20
2019-02-22T23:20:24.561Z,34.33
2019-02-22T23:22:51.221Z,28.93
2019-02-22T23:25:17.851Z,32.40
2019-02-22T23:27:44.361Z,30.83
2019-02-22T23:30:11.056Z,31.60
2019-02-22T23:32:37.766Z,32.20
2019-02-22T23:35:04.923Z,30.07
2019-02-22T23:37:31.553Z,33.27
2019-02-22T23:39:58.096Z,33.63
2019-02-22T23:42:24.567Z,31.07
2019-02-22T23:44:51.067Z,28.63
2019-02-22T23:47:17.697Z,27.70
2019-02-22T23:49:44.306Z,30.13
2019-02-22T23:52:10.905Z,34.03
2019-02-22T23:54:37.459Z,30.83
2019-02-22T23:57:04.112Z,26.37
2019-02-22T23:59:30.797Z,28.43
